createdAt,value
2023-02-03T00:00:31.880Z,51.76
2023-02-03T00:01:33.533Z,52.85
2023-02-03T00:02:35.196Z,51.93
2023-02-03T00:03:36.881Z,52.87
2023-02-03T00:04:38.493Z,51.47
2023-02-03T00:05:41.020Z,51.52
2023-02-03T00:06:42.943Z,51.73
2023-02-03T00:07:44.561Z,51.97
2023-02-03T00:08:46.285Z,52.00
2023-02-03T00:09:47.942Z,51.25
2023-02-03T00:10:49.805Z,51.18
2023-02-03T00:11:51.414Z,51.42
2023-02-03T00:12:53.845Z,51.45
2023-02-03T00:13:55.498Z,51.23
2023-02-03T00:14:57.070Z,50.86
2023-02-03T00:15:58.707Z,50.70
2023-02-03T00:17:00.349Z,50.18
2023-02-03T00:18:01.939Z,50.87
2023-02-03T00:19:03.737Z,50.99
2023-02-03T00:20:05.825Z,50.93
2023-02-03T00:21:07.636Z,50.33
2023-02-03T00:22:09.340Z,50.29
2023-02-03T00:23:12.529Z,50.19
2023-02-03T00:24:14.133Z,49.49
2023-02-03T00:25:15.826Z,49.51
2023-02-03T00:26:17.750Z,49.49
2023-02-03T00:27:19.400Z,49.08
2023-02-03T00:28:20.974Z,48.65
2023-02-03T00:29:25.853Z,49.71
2023-02-03T00:30:27.941Z,49.24
2023-02-03T00:31:29.806Z,48.96
2023-02-03T00:32:31.583Z,49.24
2023-02-03T00:33:33.898Z,49.41
2023-02-03T00:34:35.527Z,48.81
2023-02-03T00:35:40.297Z,48.94
2023-02-03T00:36:43.061Z,49.17
2023-02-03T00:37:44.777Z,49.04
2023-02-03T00:38:46.395Z,49.80
2023-02-03T00:39:47.974Z,49.01
2023-02-03T00:40:54.006Z,49.28
2023-02-03T00:41:55.622Z,48.56
2023-02-03T00:42:57.221Z,48.76
2023-02-03T00:43:58.927Z,48.72
2023-02-03T00:45:00.521Z,48.79
2023-02-03T00:46:02.174Z,48.84
2023-02-03T00:47:03.865Z,48.83
2023-02-03T00:48:06.450Z,48.71
2023-02-03T00:49:08.181Z,48.30
2023-02-03T00:50:10.669Z,49.03
2023-02-03T00:51:12.391Z,48.44
2023-02-03T00:52:14.140Z,48.22
2023-02-03T00:53:15.771Z,48.60
2023-02-03T00:54:17.477Z,48.37
2023-02-03T00:55:19.088Z,48.62
2023-02-03T00:56:20.663Z,48.41
2023-02-03T00:57:22.251Z,48.35
2023-02-03T00:58:23.882Z,48.02
2023-02-03T00:59:25.513Z,48.35
2023-02-03T01:00:30.025Z,48.39
2023-02-03T01:01:31.679Z,48.44
2023-02-03T01:02:33.373Z,48.03
2023-02-03T01:03:35.091Z,48.27
2023-02-03T01:04:36.713Z,48.27
2023-02-03T01:05:38.440Z,48.13
2023-02-03T01:06:40.982Z,48.46
2023-02-03T01:07:42.557Z,48.36
2023-02-03T01:08:44.387Z,48.92
2023-02-03T01:09:45.998Z,48.07
2023-02-03T01:10:47.601Z,48.18
2023-02-03T01:11:49.394Z,48.56
2023-02-03T01:12:50.981Z,48.37
2023-02-03T01:13:54.178Z,48.37
2023-02-03T01:14:55.813Z,48.79
2023-02-03T01:15:57.414Z,48.52
2023-02-03T01:16:59.200Z,48.61
2023-02-03T01:18:00.794Z,48.26
2023-02-03T01:19:02.466Z,49.24
2023-02-03T01:20:04.895Z,48.78
2023-02-03T01:21:12.369Z,48.39
2023-02-03T01:22:14.083Z,48.76
2023-02-03T01:23:15.654Z,49.17
2023-02-03T01:24:17.453Z,48.62
2023-02-03T01:25:19.054Z,48.35
2023-02-03T01:26:22.161Z,49.52
2023-02-03T01:27:24.032Z,49.28
2023-02-03T01:28:25.704Z,49.47
2023-02-03T01:29:27.331Z,49.42
2023-02-03T01:30:29.409Z,49.74
2023-02-03T01:31:39.736Z,49.49
2023-02-03T01:32:41.506Z,49.14
2023-02-03T01:33:46.294Z,49.98
2023-02-03T01:34:47.923Z,49.31
2023-02-03T01:35:49.508Z,48.75
2023-02-03T01:36:51.206Z,49.73
2023-02-03T01:37:52.863Z,50.06
2023-02-03T01:38:55.033Z,49.48
2023-02-03T01:39:57.620Z,49.98
2023-02-03T01:40:59.227Z,50.40
2023-02-03T01:42:00.852Z,50.48
2023-02-03T01:43:02.446Z,50.39
2023-02-03T01:44:32.612Z,50.00
2023-02-03T01:45:34.271Z,50.71
2023-02-03T01:46:46.196Z,50.66
2023-02-03T01:47:59.715Z,51.07
2023-02-03T01:49:04.239Z,51.03
2023-02-03T01:50:19.881Z,52.16
2023-02-03T01:51:23.598Z,51.82
2023-02-03T01:52:26.666Z,52.64
2023-02-03T01:53:28.383Z,51.69
2023-02-03T01:54:35.410Z,52.27
2023-02-03T01:55:44.774Z,52.05
2023-02-03T01:56:51.665Z,52.52
2023-02-03T01:58:01.724Z,52.54
2023-02-03T01:59:03.475Z,53.08
2023-02-03T02:00:07.010Z,53.15
2023-02-03T02:01:08.636Z,53.74
2023-02-03T02:02:12.353Z,53.70
2023-02-03T02:03:14.628Z,53.72
2023-02-03T02:04:16.493Z,53.84
2023-02-03T02:05:53.538Z,53.69
2023-02-03T02:06:57.839Z,53.74
2023-02-03T02:08:01.984Z,53.88
2023-02-03T02:09:03.897Z,53.77
2023-02-03T02:10:06.762Z,54.10
2023-02-03T02:11:08.757Z,54.63
2023-02-03T02:12:12.229Z,53.99
2023-02-03T02:13:16.032Z,54.58
2023-02-03T02:14:17.954Z,55.32
2023-02-03T02:15:24.564Z,55.34
2023-02-03T02:16:47.430Z,55.07
2023-02-03T02:18:14.913Z,55.40
2023-02-03T02:19:50.052Z,55.69
2023-02-03T02:21:31.850Z,55.55
2023-02-03T02:22:54.814Z,55.48
2023-02-03T02:24:11.687Z,55.55
2023-02-03T02:25:37.373Z,56.36
2023-02-03T02:26:59.957Z,56.73
2023-02-03T02:28:22.702Z,56.25
2023-02-03T02:29:24.247Z,56.03
2023-02-03T02:30:40.761Z,56.44
2023-02-03T02:32:05.404Z,56.71
2023-02-03T02:33:18.665Z,56.51
2023-02-03T02:34:47.048Z,55.70
2023-02-03T02:36:00.538Z,56.63
2023-02-03T02:37:22.352Z,56.76
2023-02-03T02:38:41.499Z,56.52
2023-02-03T02:39:57.237Z,56.22
2023-02-03T02:41:16.321Z,55.86
2023-02-03T02:42:40.903Z,56.06
2023-02-03T02:44:00.653Z,56.00
2023-02-03T02:45:15.647Z,55.87
2023-02-03T02:46:46.281Z,55.85
2023-02-03T02:47:48.725Z,56.11
2023-02-03T02:48:57.488Z,56.11
2023-02-03T02:50:25.498Z,56.32
2023-02-03T02:51:29.446Z,56.69
2023-02-03T02:52:36.647Z,56.77
2023-02-03T02:53:46.644Z,56.77
2023-02-03T02:55:00.164Z,56.29
2023-02-03T02:56:05.685Z,56.33
2023-02-03T02:57:11.773Z,56.44
2023-02-03T02:58:15.887Z,56.57
2023-02-03T02:59:17.584Z,55.71
2023-02-03T03:00:19.488Z,56.52
2023-02-03T03:01:21.392Z,56.11
2023-02-03T03:02:27.187Z,56.57
2023-02-03T03:03:29.096Z,56.61
2023-02-03T03:04:34.239Z,56.00
2023-02-03T03:05:36.475Z,55.90
2023-02-03T03:06:44.108Z,55.76
2023-02-03T03:07:51.369Z,56.09
2023-02-03T03:09:03.051Z,55.75
2023-02-03T03:10:10.167Z,55.72
2023-02-03T03:11:12.289Z,56.17
2023-02-03T03:12:24.943Z,56.05
2023-02-03T03:13:32.383Z,55.80
2023-02-03T03:14:35.754Z,56.15
2023-02-03T03:15:41.122Z,56.09
2023-02-03T03:16:47.703Z,55.56
2023-02-03T03:18:01.234Z,55.19
2023-02-03T03:19:07.906Z,56.05
2023-02-03T03:20:16.319Z,55.30
2023-02-03T03:21:25.415Z,54.96
2023-02-03T03:22:33.710Z,55.54
2023-02-03T03:23:42.369Z,55.19
2023-02-03T03:24:50.156Z,55.55
2023-02-03T03:25:57.838Z,55.13
2023-02-03T03:27:13.380Z,55.02
2023-02-03T03:28:24.083Z,54.66
2023-02-03T03:29:57.404Z,55.03
2023-02-03T03:30:59.109Z,54.34
2023-02-03T03:32:01.953Z,54.86
2023-02-03T03:33:05.609Z,54.77
2023-02-03T03:34:11.071Z,53.90
2023-02-03T03:35:13.013Z,53.91
2023-02-03T03:36:30.082Z,53.40
2023-02-03T03:37:36.697Z,52.98
2023-02-03T03:38:46.239Z,53.66
2023-02-03T03:39:57.962Z,53.32
2023-02-03T03:41:07.918Z,53.52
2023-02-03T03:42:23.652Z,53.86
2023-02-03T03:43:32.323Z,53.31
2023-02-03T03:44:48.248Z,52.72
2023-02-03T03:46:01.809Z,52.66
2023-02-03T03:47:30.484Z,52.94
2023-02-03T03:48:38.859Z,53.39
2023-02-03T03:49:44.252Z,53.11
2023-02-03T03:50:56.245Z,52.31
2023-02-03T03:52:07.270Z,53.08
2023-02-03T03:53:10.532Z,52.87
2023-02-03T03:54:17.443Z,52.79
2023-02-03T03:55:20.500Z,51.93
2023-02-03T03:56:30.881Z,52.26
2023-02-03T03:57:59.055Z,51.74
2023-02-03T03:59:02.791Z,52.11
2023-02-03T04:00:09.675Z,51.96
2023-02-03T04:01:13.386Z,51.88
2023-02-03T04:02:17.529Z,51.41
2023-02-03T04:03:26.335Z,52.37
2023-02-03T04:04:28.541Z,51.75
2023-02-03T04:05:32.184Z,51.51
2023-02-03T04:06:33.797Z,52.44
2023-02-03T04:07:41.371Z,52.10
2023-02-03T04:08:43.009Z,51.72
2023-02-03T04:09:44.655Z,52.05
2023-02-03T04:10:46.469Z,51.85
2023-02-03T04:12:03.059Z,52.09
2023-02-03T04:13:05.735Z,52.45
2023-02-03T04:14:07.476Z,52.30
2023-02-03T04:15:09.510Z,51.90
2023-02-03T04:16:11.175Z,52.34
2023-02-03T04:17:12.778Z,52.32
2023-02-03T04:18:15.749Z,52.09
2023-02-03T04:19:17.368Z,52.20
2023-02-03T04:20:19.031Z,51.98
2023-02-03T04:21:20.642Z,52.90
2023-02-03T04:22:22.234Z,51.99
2023-02-03T04:23:23.826Z,52.95
2023-02-03T04:24:25.559Z,52.00
2023-02-03T04:25:27.231Z,52.25
2023-02-03T04:26:28.832Z,52.22
2023-02-03T04:27:30.509Z,52.78
2023-02-03T04:28:32.091Z,52.55
2023-02-03T04:29:33.665Z,52.57
2023-02-03T04:30:35.304Z,53.05
2023-02-03T04:31:38.584Z,52.82
2023-02-03T04:32:40.710Z,53.58
2023-02-03T04:33:42.385Z,53.48
2023-02-03T04:34:44.039Z,54.15
2023-02-03T04:35:45.617Z,53.21
2023-02-03T04:36:47.228Z,53.16
2023-02-03T04:37:48.872Z,53.86
2023-02-03T04:38:50.578Z,53.72
2023-02-03T04:39:52.796Z,54.38
2023-02-03T04:40:54.399Z,53.82
2023-02-03T04:41:56.107Z,54.91
2023-02-03T04:42:57.702Z,55.17
2023-02-03T04:43:59.967Z,54.77
2023-02-03T04:45:01.553Z,54.51
2023-02-03T04:46:03.226Z,54.95
2023-02-03T04:47:05.022Z,55.14
2023-02-03T04:48:06.603Z,55.33
2023-02-03T04:49:11.547Z,55.39
2023-02-03T04:50:13.159Z,55.58
2023-02-03T04:51:14.863Z,54.95
2023-02-03T04:52:16.548Z,55.73
2023-02-03T04:53:18.175Z,55.11
2023-02-03T04:54:19.768Z,55.97
2023-02-03T04:55:21.471Z,55.60
2023-02-03T04:56:23.151Z,55.81
2023-02-03T04:57:24.759Z,55.65
2023-02-03T04:58:27.097Z,56.17
2023-02-03T04:59:28.810Z,56.16
2023-02-03T05:00:30.698Z,55.79
2023-02-03T05:01:32.451Z,55.64
2023-02-03T05:02:34.095Z,56.44
2023-02-03T05:03:36.351Z,56.99
2023-02-03T05:04:38.911Z,57.01
2023-02-03T05:05:40.513Z,56.59
2023-02-03T05:06:42.150Z,56.47
2023-02-03T05:07:43.838Z,56.22
2023-02-03T05:08:45.425Z,56.13
2023-02-03T05:09:47.080Z,56.98
2023-02-03T05:10:48.680Z,56.94
2023-02-03T05:11:50.418Z,56.80
2023-02-03T05:12:51.988Z,56.55
2023-02-03T05:13:54.367Z,56.41
2023-02-03T05:14:55.990Z,57.21
2023-02-03T05:15:57.584Z,56.73
2023-02-03T05:16:59.185Z,56.01
2023-02-03T05:18:00.777Z,56.89
2023-02-03T05:19:02.564Z,56.63
2023-02-03T05:20:04.858Z,56.80
2023-02-03T05:21:06.915Z,55.90
2023-02-03T05:22:08.484Z,55.82
2023-02-03T05:23:10.096Z,56.28
2023-02-03T05:24:11.847Z,56.18
2023-02-03T05:25:14.391Z,55.44
2023-02-03T05:26:16.293Z,55.53
2023-02-03T05:27:17.929Z,56.09
2023-02-03T05:28:19.579Z,55.79
2023-02-03T05:29:21.393Z,55.27
2023-02-03T05:30:22.986Z,55.77
2023-02-03T05:31:24.715Z,55.35
2023-02-03T05:32:27.037Z,55.32
2023-02-03T05:33:29.859Z,55.32
2023-02-03T05:34:31.529Z,54.74
2023-02-03T05:35:33.538Z,55.06
2023-02-03T05:36:35.148Z,55.00
2023-02-03T05:37:36.795Z,54.74
2023-02-03T05:38:38.415Z,54.85
2023-02-03T05:39:40.030Z,54.70
2023-02-03T05:41:00.106Z,54.72
2023-02-03T05:42:03.313Z,54.00
2023-02-03T05:43:05.013Z,54.48
2023-02-03T05:44:06.661Z,53.99
2023-02-03T05:45:08.521Z,54.46
2023-02-03T05:46:10.407Z,54.57
2023-02-03T05:47:12.041Z,54.88
2023-02-03T05:48:13.673Z,54.27
2023-02-03T05:49:15.338Z,54.04
2023-02-03T05:50:17.041Z,54.07
2023-02-03T05:51:18.696Z,54.53
2023-02-03T05:52:21.158Z,54.68
2023-02-03T05:53:23.461Z,54.86
2023-02-03T05:54:25.103Z,54.08
2023-02-03T05:55:28.339Z,54.35
2023-02-03T05:56:29.938Z,54.46
2023-02-03T05:57:32.414Z,53.87
2023-02-03T05:58:34.148Z,54.23
2023-02-03T05:59:35.751Z,54.66
2023-02-03T06:00:37.699Z,53.82
2023-02-03T06:01:39.356Z,54.43
2023-02-03T06:02:40.942Z,54.63
2023-02-03T06:03:45.741Z,54.00
2023-02-03T06:04:47.770Z,54.61
2023-02-03T06:05:49.389Z,54.08
2023-02-03T06:06:50.988Z,53.51
2023-02-03T06:07:53.054Z,53.94
2023-02-03T06:08:57.141Z,54.06
2023-02-03T06:09:58.762Z,53.51
2023-02-03T06:11:00.742Z,53.10
2023-02-03T06:12:02.335Z,53.42
2023-02-03T06:13:11.990Z,53.09
2023-02-03T06:14:13.629Z,52.89
2023-02-03T06:15:15.802Z,53.39
2023-02-03T06:16:17.565Z,52.99
2023-02-03T06:17:19.163Z,52.95
2023-02-03T06:18:21.329Z,52.95
2023-02-03T06:19:22.944Z,52.94
2023-02-03T06:20:24.537Z,52.94
2023-02-03T06:21:26.560Z,52.57
2023-02-03T06:22:28.185Z,52.39
2023-02-03T06:23:29.915Z,52.24
2023-02-03T06:24:31.608Z,52.92
2023-02-03T06:25:33.646Z,52.73
2023-02-03T06:26:35.244Z,52.17
2023-02-03T06:27:37.084Z,51.58
2023-02-03T06:28:38.724Z,52.41
2023-02-03T06:29:41.157Z,51.72
2023-02-03T06:30:43.347Z,51.98
2023-02-03T06:31:45.216Z,52.45
2023-02-03T06:32:48.715Z,50.97
2023-02-03T06:33:50.340Z,51.93
2023-02-03T06:34:51.937Z,51.82
2023-02-03T06:35:54.521Z,51.37
2023-02-03T06:36:56.158Z,51.58
2023-02-03T06:37:57.751Z,51.10
2023-02-03T06:38:59.462Z,51.25
2023-02-03T06:40:01.327Z,50.47
2023-02-03T06:41:03.028Z,50.70
2023-02-03T06:42:04.713Z,50.92
2023-02-03T06:43:06.438Z,51.40
2023-02-03T06:44:08.053Z,50.24
2023-02-03T06:45:10.146Z,50.31
2023-02-03T06:46:12.634Z,51.09
2023-02-03T06:47:14.425Z,50.68
2023-02-03T06:48:16.135Z,50.17
2023-02-03T06:49:18.507Z,49.87
2023-02-03T06:50:20.262Z,50.56
2023-02-03T06:51:22.580Z,49.45
2023-02-03T06:52:24.168Z,50.19
2023-02-03T06:53:28.842Z,50.16
2023-02-03T06:54:30.428Z,49.69
2023-02-03T06:55:32.014Z,50.68
2023-02-03T06:56:33.622Z,50.84
2023-02-03T06:57:35.287Z,50.25
2023-02-03T06:58:36.852Z,50.19
2023-02-03T06:59:38.465Z,50.60
2023-02-03T07:00:40.062Z,50.53
2023-02-03T07:01:41.734Z,50.43
2023-02-03T07:02:43.400Z,49.85
2023-02-03T07:03:45.049Z,49.85
2023-02-03T07:04:46.638Z,50.35
2023-02-03T07:05:48.260Z,49.79
2023-02-03T07:06:49.893Z,50.94
2023-02-03T07:07:52.365Z,50.58
2023-02-03T07:08:54.023Z,50.60
2023-02-03T07:09:55.603Z,50.63
2023-02-03T07:10:57.198Z,50.64
2023-02-03T07:11:58.780Z,50.77
2023-02-03T07:13:07.112Z,50.20
2023-02-03T07:14:08.696Z,49.84
2023-02-03T07:15:11.896Z,50.86
2023-02-03T07:16:14.078Z,50.52
2023-02-03T07:17:15.750Z,50.60
2023-02-03T07:18:35.983Z,50.46
2023-02-03T07:19:40.738Z,50.04
2023-02-03T07:20:42.303Z,50.31
2023-02-03T07:21:43.876Z,50.30
2023-02-03T07:22:46.522Z,50.33
2023-02-03T07:23:49.048Z,50.36
2023-02-03T07:24:50.699Z,50.30
2023-02-03T07:25:52.408Z,50.79
2023-02-03T07:26:54.032Z,50.33
2023-02-03T07:27:55.679Z,50.72
2023-02-03T07:29:00.020Z,49.41
2023-02-03T07:30:01.624Z,49.33
2023-02-03T07:31:08.226Z,47.62
2023-02-03T07:32:10.042Z,47.15
2023-02-03T07:33:11.680Z,46.65
2023-02-03T07:34:13.307Z,47.21
2023-02-03T07:35:15.396Z,47.43
2023-02-03T07:36:16.987Z,47.64
2023-02-03T07:37:18.564Z,48.09
2023-02-03T07:38:20.267Z,47.65
2023-02-03T07:39:21.833Z,48.28
2023-02-03T07:40:23.505Z,48.73
2023-02-03T07:41:25.134Z,47.88
2023-02-03T07:42:26.718Z,48.71
2023-02-03T07:43:28.335Z,48.69
2023-02-03T07:44:29.972Z,48.86
2023-02-03T07:45:31.552Z,48.75
2023-02-03T07:46:33.188Z,49.39
2023-02-03T07:47:34.797Z,49.37
2023-02-03T07:48:36.370Z,49.24
2023-02-03T07:49:38.028Z,49.32
2023-02-03T07:50:40.212Z,49.60
2023-02-03T07:51:41.799Z,50.48
2023-02-03T07:52:43.397Z,50.38
2023-02-03T07:53:45.729Z,49.20
2023-02-03T07:54:47.307Z,49.05
2023-02-03T07:55:48.891Z,48.36
2023-02-03T07:56:50.521Z,46.98
2023-02-03T07:57:54.386Z,47.96
2023-02-03T07:58:56.174Z,46.98
2023-02-03T07:59:57.763Z,45.94
2023-02-03T08:01:00.064Z,45.37
2023-02-03T08:02:01.739Z,44.79
2023-02-03T08:03:03.567Z,43.90
2023-02-03T08:04:05.711Z,42.75
2023-02-03T08:05:07.690Z,43.24
2023-02-03T08:06:09.447Z,42.42
2023-02-03T08:07:11.046Z,42.29
2023-02-03T08:08:12.686Z,42.51
2023-02-03T08:09:14.304Z,42.99
2023-02-03T08:10:16.849Z,41.70
2023-02-03T08:11:18.455Z,40.11
2023-02-03T08:12:20.125Z,41.95
2023-02-03T08:13:21.807Z,39.46
2023-02-03T08:14:23.961Z,39.53
2023-02-03T08:15:25.724Z,39.81
2023-02-03T08:16:27.361Z,40.34
2023-02-03T08:17:29.044Z,39.41
2023-02-03T08:18:32.640Z,38.77
2023-02-03T08:19:35.282Z,38.53
2023-02-03T08:20:36.860Z,39.92
2023-02-03T08:21:38.828Z,40.05
2023-02-03T08:22:40.446Z,41.90
2023-02-03T08:23:42.043Z,40.46
2023-02-03T08:24:46.045Z,38.88
2023-02-03T08:25:52.476Z,39.05
2023-02-03T08:26:54.496Z,38.70
2023-02-03T08:27:56.284Z,38.51
2023-02-03T08:28:58.090Z,38.33
2023-02-03T08:30:00.225Z,39.00
2023-02-03T08:31:02.092Z,37.74
2023-02-03T08:32:05.323Z,38.29
2023-02-03T08:33:07.848Z,37.91
2023-02-03T08:34:14.302Z,37.72
2023-02-03T08:35:15.994Z,36.41
2023-02-03T08:36:17.572Z,37.05
2023-02-03T08:37:24.440Z,38.22
2023-02-03T08:38:26.126Z,37.05
2023-02-03T08:39:28.467Z,36.90
2023-02-03T08:40:30.630Z,36.37
2023-02-03T08:41:33.500Z,37.33
2023-02-03T08:42:35.362Z,37.38
2023-02-03T08:43:37.382Z,36.30
2023-02-03T08:44:39.283Z,36.68
2023-02-03T08:45:41.175Z,36.60
2023-02-03T08:46:44.308Z,37.90
2023-02-03T08:47:46.059Z,37.26
2023-02-03T08:48:47.852Z,37.36
2023-02-03T08:49:49.637Z,37.40
2023-02-03T08:50:53.057Z,37.68
2023-02-03T08:51:55.620Z,36.76
2023-02-03T08:52:57.425Z,37.64
2023-02-03T08:53:59.107Z,37.39
2023-02-03T08:55:00.849Z,36.74
2023-02-03T08:56:11.465Z,36.59
2023-02-03T08:57:13.390Z,36.57
2023-02-03T08:58:15.143Z,35.91
2023-02-03T08:59:17.299Z,36.68
2023-02-03T09:00:19.542Z,36.81
2023-02-03T09:01:21.703Z,35.92
2023-02-03T09:02:23.422Z,35.96
2023-02-03T09:03:25.800Z,35.05
2023-02-03T09:04:27.619Z,34.80
2023-02-03T09:05:31.226Z,35.54
2023-02-03T09:06:33.264Z,34.68
2023-02-03T09:07:35.052Z,34.91
2023-02-03T09:08:36.748Z,35.35
2023-02-03T09:09:38.459Z,33.66
2023-02-03T09:10:40.198Z,34.55
2023-02-03T09:11:43.101Z,33.79
2023-02-03T09:12:44.937Z,33.93
2023-02-03T09:13:47.952Z,34.00
2023-02-03T09:14:49.692Z,33.91
2023-02-03T09:15:51.679Z,33.51
2023-02-03T09:16:53.504Z,34.21
2023-02-03T09:17:56.728Z,33.73
2023-02-03T09:18:58.442Z,33.57
2023-02-03T09:20:00.306Z,33.21
2023-02-03T09:21:07.580Z,32.81
2023-02-03T09:22:09.625Z,32.97
2023-02-03T09:23:11.450Z,33.01
2023-02-03T09:24:13.279Z,33.21
2023-02-03T09:25:16.413Z,33.38
2023-02-03T09:26:18.172Z,32.54
2023-02-03T09:27:19.907Z,32.31
2023-02-03T09:28:21.635Z,31.86
2023-02-03T09:29:23.468Z,31.84
2023-02-03T09:30:25.443Z,32.40
2023-02-03T09:31:27.377Z,32.25
2023-02-03T09:32:29.091Z,32.31
2023-02-03T09:33:30.890Z,32.64
2023-02-03T09:34:32.894Z,32.64
2023-02-03T09:35:34.591Z,32.47
2023-02-03T09:36:37.671Z,32.21
2023-02-03T09:37:39.366Z,32.34
2023-02-03T09:38:41.113Z,32.25
2023-02-03T09:39:42.861Z,32.97
2023-02-03T09:40:47.061Z,32.65
2023-02-03T09:42:01.079Z,32.65
2023-02-03T09:43:28.970Z,32.83
2023-02-03T09:45:01.590Z,32.80
2023-02-03T09:46:25.949Z,33.15
2023-02-03T09:47:32.858Z,33.04
2023-02-03T09:48:42.574Z,33.27
2023-02-03T09:49:50.711Z,33.26
2023-02-03T09:50:53.785Z,31.67
2023-02-03T09:52:05.910Z,31.18
2023-02-03T09:53:20.360Z,31.21
2023-02-03T09:54:35.672Z,31.19
2023-02-03T09:55:43.240Z,31.06
2023-02-03T09:56:50.949Z,31.10
2023-02-03T09:57:59.012Z,30.54
2023-02-03T09:59:01.721Z,30.02
2023-02-03T10:00:16.896Z,29.92
2023-02-03T10:01:20.371Z,30.12
2023-02-03T10:02:22.061Z,29.55
2023-02-03T10:03:29.889Z,30.12
2023-02-03T10:04:40.157Z,29.68
2023-02-03T10:06:00.603Z,29.93
2023-02-03T10:07:14.813Z,29.56
2023-02-03T10:08:52.407Z,30.26
2023-02-03T10:10:22.006Z,29.38
2023-02-03T10:12:01.298Z,28.90
2023-02-03T10:13:18.166Z,28.16
2023-02-03T10:14:55.379Z,28.53
2023-02-03T10:16:29.657Z,28.11
2023-02-03T10:17:38.245Z,27.73
2023-02-03T10:18:45.962Z,28.65
2023-02-03T10:19:57.404Z,28.24
2023-02-03T10:21:14.157Z,29.15
2023-02-03T10:22:21.984Z,30.05
2023-02-03T10:23:35.183Z,30.45
2023-02-03T10:24:46.650Z,29.83
2023-02-03T10:25:57.386Z,30.64
2023-02-03T10:26:59.511Z,31.06
2023-02-03T10:28:05.012Z,29.75
2023-02-03T10:29:26.888Z,29.62
2023-02-03T10:30:45.471Z,28.93
2023-02-03T10:31:48.188Z,29.04
2023-02-03T10:32:54.754Z,29.10
2023-02-03T10:34:11.488Z,29.72
2023-02-03T10:35:14.199Z,30.19
2023-02-03T10:36:15.891Z,30.39
2023-02-03T10:37:31.176Z,28.99
2023-02-03T10:38:53.849Z,29.36
2023-02-03T10:39:57.824Z,29.48
2023-02-03T10:40:59.698Z,29.57
2023-02-03T10:42:04.075Z,29.21
2023-02-03T10:43:24.239Z,29.68
2023-02-03T10:44:49.162Z,29.09
2023-02-03T10:45:50.933Z,28.25
2023-02-03T10:46:52.993Z,28.08
2023-02-03T10:47:56.342Z,28.30
2023-02-03T10:48:58.730Z,28.38
2023-02-03T10:50:08.186Z,28.54
2023-02-03T10:51:19.740Z,28.87
2023-02-03T10:52:45.700Z,28.93
2023-02-03T10:53:48.074Z,29.30
2023-02-03T10:54:49.804Z,29.47
2023-02-03T10:56:02.520Z,28.55
2023-02-03T10:57:12.697Z,28.99
2023-02-03T10:58:34.338Z,28.77
2023-02-03T10:59:41.624Z,28.37
2023-02-03T11:00:43.839Z,28.23
2023-02-03T11:01:49.386Z,29.15
2023-02-03T11:03:03.540Z,29.11
2023-02-03T11:04:06.165Z,28.92
2023-02-03T11:05:16.745Z,29.27
2023-02-03T11:06:18.492Z,29.62
2023-02-03T11:07:26.945Z,29.88
2023-02-03T11:08:33.299Z,29.37
2023-02-03T11:09:43.081Z,28.91
2023-02-03T11:10:44.890Z,28.86
2023-02-03T11:11:46.675Z,28.75
2023-02-03T11:12:48.748Z,28.82
2023-02-03T11:14:05.428Z,28.77
2023-02-03T11:15:08.789Z,29.00
2023-02-03T11:16:17.534Z,29.12
2023-02-03T11:17:29.843Z,28.27
2023-02-03T11:18:39.717Z,28.27
2023-02-03T11:19:46.072Z,28.83
2023-02-03T11:20:47.909Z,28.47
2023-02-03T11:21:56.575Z,28.47
2023-02-03T11:23:05.703Z,28.85
2023-02-03T11:24:22.628Z,29.24
2023-02-03T11:25:32.462Z,28.44
2023-02-03T11:26:39.857Z,28.37
2023-02-03T11:27:42.224Z,28.76
2023-02-03T11:28:47.959Z,28.32
2023-02-03T11:30:11.828Z,28.73
2023-02-03T11:31:28.753Z,29.04
2023-02-03T11:32:41.815Z,29.05
2023-02-03T11:33:48.102Z,29.46
2023-02-03T11:35:20.648Z,29.97
2023-02-03T11:36:26.557Z,29.92
2023-02-03T11:37:40.130Z,30.48
2023-02-03T11:38:42.889Z,30.56
2023-02-03T11:39:44.650Z,30.43
2023-02-03T11:40:46.424Z,31.71
2023-02-03T11:41:49.119Z,30.83
2023-02-03T11:42:50.783Z,31.55
2023-02-03T11:43:56.257Z,31.32
2023-02-03T11:45:25.226Z,31.71
2023-02-03T11:46:27.487Z,30.65
2023-02-03T11:47:29.504Z,31.74
2023-02-03T11:48:56.957Z,30.53
2023-02-03T11:50:17.123Z,31.26
2023-02-03T11:51:28.524Z,31.84
2023-02-03T11:52:48.442Z,30.91
2023-02-03T11:54:25.654Z,31.75
2023-02-03T11:55:53.695Z,31.54
2023-02-03T11:57:10.617Z,31.78
2023-02-03T11:58:35.582Z,31.27
2023-02-03T11:59:48.992Z,31.91
2023-02-03T12:00:57.377Z,30.48
2023-02-03T12:02:14.276Z,31.12
2023-02-03T12:03:30.917Z,30.70
2023-02-03T12:04:32.705Z,31.25
2023-02-03T12:05:54.985Z,31.04
2023-02-03T12:07:08.666Z,31.65
2023-02-03T12:08:29.348Z,31.35
2023-02-03T12:09:37.801Z,31.28
2023-02-03T12:11:02.894Z,31.10
2023-02-03T12:12:12.904Z,31.88
2023-02-03T12:13:29.519Z,32.00
2023-02-03T12:14:34.012Z,32.12
2023-02-03T12:16:04.635Z,31.79
2023-02-03T12:17:15.427Z,31.03
2023-02-03T12:18:47.450Z,30.79
2023-02-03T12:20:03.352Z,31.40
2023-02-03T12:21:04.990Z,31.37
2023-02-03T12:22:37.906Z,31.35
2023-02-03T12:24:05.967Z,31.31
2023-02-03T12:25:19.907Z,30.48
2023-02-03T12:26:30.671Z,30.74
2023-02-03T12:28:01.716Z,29.88
2023-02-03T12:29:27.868Z,30.13
2023-02-03T12:30:39.763Z,30.53
2023-02-03T12:31:50.235Z,30.83
2023-02-03T12:32:57.408Z,30.53
2023-02-03T12:34:19.300Z,30.56
2023-02-03T12:35:32.080Z,30.97
2023-02-03T12:36:45.160Z,31.13
2023-02-03T12:38:12.933Z,31.13
2023-02-03T12:39:38.298Z,31.54
2023-02-03T12:40:49.423Z,30.63
2023-02-03T12:42:05.989Z,30.36
2023-02-03T12:43:38.773Z,30.23
2023-02-03T12:44:57.583Z,30.79
2023-02-03T12:46:10.510Z,31.37
2023-02-03T12:47:24.854Z,31.93
2023-02-03T12:48:32.959Z,31.91
2023-02-03T12:49:44.761Z,31.70
2023-02-03T12:50:51.347Z,31.61
2023-02-03T12:52:26.894Z,30.99
2023-02-03T12:53:36.607Z,31.93
2023-02-03T12:55:03.845Z,31.04
2023-02-03T12:56:12.430Z,31.79
2023-02-03T12:57:42.132Z,31.28
2023-02-03T12:59:18.259Z,31.14
2023-02-03T13:00:46.652Z,32.12
2023-02-03T13:02:24.072Z,31.74
2023-02-03T13:03:55.917Z,31.18
2023-02-03T13:05:00.590Z,30.43
2023-02-03T13:06:11.084Z,30.74
2023-02-03T13:07:22.422Z,31.04
2023-02-03T13:08:31.631Z,31.03
2023-02-03T13:09:48.015Z,30.32
2023-02-03T13:11:06.035Z,30.11
2023-02-03T13:12:13.647Z,29.58
2023-02-03T13:13:23.531Z,29.76
2023-02-03T13:14:52.596Z,29.97
2023-02-03T13:15:57.210Z,29.60
2023-02-03T13:17:25.036Z,29.29
2023-02-03T13:18:39.692Z,28.50
2023-02-03T13:19:53.432Z,29.18
2023-02-03T13:20:55.911Z,30.01
2023-02-03T13:21:57.884Z,29.62
2023-02-03T13:22:59.640Z,29.62
2023-02-03T13:24:04.569Z,29.73
2023-02-03T13:25:09.574Z,30.27
2023-02-03T13:26:32.609Z,29.38
2023-02-03T13:27:39.812Z,29.68
2023-02-03T13:28:51.353Z,29.47
2023-02-03T13:30:29.157Z,29.20
2023-02-03T13:31:43.014Z,29.72
2023-02-03T13:32:58.655Z,29.43
2023-02-03T13:34:03.224Z,29.63
2023-02-03T13:35:58.974Z,28.41
2023-02-03T13:37:24.912Z,28.93
2023-02-03T13:38:38.063Z,29.24
2023-02-03T13:39:43.624Z,28.95
2023-02-03T13:40:58.509Z,28.27
2023-02-03T13:42:28.563Z,29.00
2023-02-03T13:43:38.774Z,29.22
2023-02-03T13:44:43.388Z,29.61
2023-02-03T13:45:52.486Z,29.95
2023-02-03T13:46:58.807Z,30.12
2023-02-03T13:48:16.348Z,30.24
2023-02-03T13:49:37.291Z,29.95
2023-02-03T13:50:39.855Z,30.06
2023-02-03T13:51:46.377Z,30.48
2023-02-03T13:52:59.789Z,30.00
2023-02-03T13:54:08.555Z,31.15
2023-02-03T13:55:42.897Z,31.02
2023-02-03T13:56:56.297Z,30.51
2023-02-03T13:57:58.556Z,31.02
2023-02-03T13:59:06.340Z,31.49
2023-02-03T14:00:46.114Z,30.68
2023-02-03T14:01:47.865Z,31.08
2023-02-03T14:02:54.680Z,30.74
2023-02-03T14:03:57.877Z,31.02
2023-02-03T14:05:02.134Z,30.95
2023-02-03T14:06:04.194Z,31.71
2023-02-03T14:07:28.411Z,32.38
2023-02-03T14:08:30.136Z,32.67
2023-02-03T14:09:31.992Z,31.15
2023-02-03T14:10:33.719Z,30.63
2023-02-03T14:11:35.414Z,31.19
2023-02-03T14:12:40.032Z,31.30
2023-02-03T14:13:41.789Z,30.83
2023-02-03T14:14:44.730Z,31.53
2023-02-03T14:16:24.042Z,30.59
2023-02-03T14:17:46.539Z,31.47
2023-02-03T14:18:48.349Z,32.53
2023-02-03T14:19:49.988Z,32.85
2023-02-03T14:20:58.194Z,32.82